Terminal Aerodrome Forecast
Issued by NWS Pittsburgh, PA

Current Version | Previous Version | Graphics & Text | Print | Product List | Glossary On
Versions: 1 2 3 4 5 6 7 8 9 10 11 12 13 14 15 16 17 18 19 20 21 22 23 24 25 26 27
814
FTUS41 KPBZ 182059 AAB
TAFPIT
TAF AMD
KPIT 182059Z 1821/1924 24012G20KT P6SM BKN250
     FM190100 25005KT P6SM BKN090
     FM191000 26004KT P6SM BKN025
     FM191500 27006KT P6SM SCT250=

USA.gov is the U.S. government's official web portal to all federal, state and local government web resources and services.